createdAt,value
2018-12-05T00:01:34.483Z,2.60
2018-12-05T00:04:03.260Z,2.60
2018-12-05T00:09:27.641Z,2.70
2018-12-05T00:11:56.339Z,2.70
2018-12-05T00:14:25.095Z,2.70
2018-12-05T00:16:59.639Z,2.80
2018-12-05T00:19:28.407Z,2.80
2018-12-05T00:21:57.183Z,2.90
2018-12-05T00:24:25.948Z,2.90
2018-12-05T00:26:58.536Z,2.90
2018-12-05T00:29:27.231Z,2.90
2018-12-05T00:31:57.039Z,2.90
2018-12-05T00:34:25.803Z,2.90
2018-12-05T00:37:04.483Z,2.80
2018-12-05T00:39:33.180Z,2.90
2018-12-05T00:42:01.963Z,2.90
2018-12-05T00:44:30.733Z,2.90
2018-12-05T00:47:03.196Z,2.90
2018-12-05T00:49:31.904Z,2.90
2018-12-05T00:52:00.664Z,2.90
2018-12-05T00:54:29.444Z,2.90
2018-12-05T00:57:01.884Z,2.80
2018-12-05T00:59:36.153Z,2.90
2018-12-05T01:02:04.987Z,2.90
2018-12-05T01:04:33.780Z,2.80
2018-12-05T01:07:08.312Z,2.80
2018-12-05T01:09:40.275Z,2.70
2018-12-05T01:12:10.256Z,2.70
2018-12-05T01:14:39.104Z,2.70
2018-12-05T01:17:11.296Z,2.70
2018-12-05T01:19:43.105Z,2.70
2018-12-05T01:22:11.803Z,2.60
2018-12-05T01:24:40.502Z,2.70
2018-12-05T01:27:12.292Z,2.70
2018-12-05T01:29:40.988Z,2.70
2018-12-05T01:32:09.691Z,2.60
2018-12-05T01:34:41.451Z,2.60
2018-12-05T01:37:20.445Z,2.60
2018-12-05T01:39:49.152Z,2.60
2018-12-05T01:42:18.039Z,2.50
2018-12-05T01:44:46.744Z,2.60
2018-12-05T01:47:15.444Z,2.60
2018-12-05T01:49:44.127Z,2.60
2018-12-05T01:52:12.856Z,2.60
2018-12-05T01:54:43.477Z,2.60
2018-12-05T01:57:18.667Z,2.60
2018-12-05T01:59:47.417Z,2.50
2018-12-05T02:02:16.181Z,2.60
2018-12-05T02:04:44.932Z,2.60
2018-12-05T02:07:19.423Z,2.60
2018-12-05T02:09:48.197Z,2.60
2018-12-05T02:12:17.064Z,2.60
2018-12-05T02:14:45.831Z,2.60
2018-12-05T02:17:27.383Z,2.60
2018-12-05T02:19:56.086Z,2.60
2018-12-05T02:22:24.780Z,2.50
2018-12-05T02:27:44.324Z,2.60
2018-12-05T02:30:13.061Z,2.60
2018-12-05T02:32:41.902Z,2.60
2018-12-05T02:35:13.923Z,2.60
2018-12-05T02:37:42.685Z,2.60
2018-12-05T02:40:11.427Z,2.60
2018-12-05T02:42:41.844Z,2.60
2018-12-05T02:45:13.920Z,2.60
2018-12-05T02:47:48.992Z,2.50
2018-12-05T02:50:17.795Z,2.50
2018-12-05T02:52:46.481Z,2.50
2018-12-05T02:55:20.871Z,2.60
2018-12-05T02:57:49.555Z,2.50
2018-12-05T03:00:18.321Z,2.50
2018-12-05T03:02:53.972Z,2.50
2018-12-05T03:05:38.994Z,2.40
2018-12-05T03:08:07.803Z,2.30
2018-12-05T03:10:36.601Z,2.30
2018-12-05T03:13:07.348Z,2.30
2018-12-05T03:15:44.971Z,2.30
2018-12-05T03:18:14.620Z,2.20
2018-12-05T03:20:43.574Z,2.20
2018-12-05T03:23:12.399Z,2.20
2018-12-05T03:25:44.357Z,2.20
2018-12-05T03:28:13.095Z,2.20
2018-12-05T03:30:47.533Z,2.10
2018-12-05T03:33:16.225Z,2.20
2018-12-05T03:35:48.305Z,2.10
2018-12-05T03:38:17.057Z,2.10
2018-12-05T03:40:45.821Z,2.00
2018-12-05T03:43:14.632Z,2.00
2018-12-05T03:45:56.032Z,2.00
2018-12-05T03:48:24.722Z,1.90
2018-12-05T03:51:05.418Z,1.90
2018-12-05T03:53:34.183Z,1.90
2018-12-05T03:56:02.951Z,1.90
2018-12-05T03:58:31.729Z,1.80
2018-12-05T04:01:04.137Z,1.80
2018-12-05T04:03:32.879Z,1.80
2018-12-05T04:06:01.720Z,1.80
2018-12-05T04:08:30.431Z,1.80
2018-12-05T04:11:02.752Z,1.80
2018-12-05T04:13:31.663Z,1.80
2018-12-05T04:16:00.411Z,1.80
2018-12-05T04:18:29.167Z,1.70
2018-12-05T04:21:01.171Z,1.70
2018-12-05T04:23:29.868Z,1.70
2018-12-05T04:25:58.556Z,1.70
2018-12-05T04:28:27.260Z,1.70
2018-12-05T04:30:59.227Z,1.70
2018-12-05T04:33:33.479Z,1.70
2018-12-05T04:36:10.353Z,1.70
2018-12-05T04:38:39.080Z,1.70
2018-12-05T04:41:11.176Z,1.70
2018-12-05T04:43:39.878Z,1.70
2018-12-05T04:46:08.620Z,1.70
2018-12-05T04:48:37.380Z,1.70
2018-12-05T04:51:18.194Z,1.60
2018-12-05T04:53:47.027Z,1.60
2018-12-05T04:56:15.716Z,1.60
2018-12-05T04:58:44.416Z,1.60
2018-12-05T05:01:13.185Z,1.60
2018-12-05T05:03:42.698Z,1.60
2018-12-05T05:06:11.455Z,1.70
2018-12-05T05:08:40.140Z,1.70
2018-12-05T05:11:12.477Z,1.70
2018-12-05T05:13:41.163Z,1.80
2018-12-05T05:16:09.854Z,1.80
2018-12-05T05:18:38.617Z,1.80
2018-12-05T05:21:11.029Z,1.80
2018-12-05T05:23:40.352Z,1.80
2018-12-05T05:26:09.099Z,1.80
2018-12-05T05:28:37.800Z,1.80
2018-12-05T05:31:10.120Z,1.80
2018-12-05T05:33:38.808Z,1.80
2018-12-05T05:36:07.516Z,1.80
2018-12-05T05:38:36.206Z,1.90
2018-12-05T05:41:08.892Z,1.90
2018-12-05T05:43:37.671Z,1.90
2018-12-05T05:46:06.364Z,1.90
2018-12-05T05:48:35.199Z,1.90
2018-12-05T05:51:07.491Z,1.90
2018-12-05T05:53:36.191Z,1.80
2018-12-05T05:56:04.968Z,1.70
2018-12-05T05:58:33.684Z,1.70
2018-12-05T06:01:06.387Z,1.70
2018-12-05T06:03:35.107Z,1.60
2018-12-05T06:06:03.872Z,1.60
2018-12-05T06:08:38.110Z,1.60
2018-12-05T06:11:12.247Z,1.50
2018-12-05T06:13:44.833Z,1.50
2018-12-05T06:16:14.249Z,1.50
2018-12-05T06:18:43.151Z,1.50
2018-12-05T06:21:11.895Z,1.50
2018-12-05T06:23:40.608Z,1.50
2018-12-05T06:26:09.366Z,1.50
2018-12-05T06:28:38.194Z,1.50
2018-12-05T06:31:10.701Z,1.50
2018-12-05T06:33:39.403Z,1.50
2018-12-05T06:36:08.166Z,1.50
2018-12-05T06:38:36.883Z,1.60
2018-12-05T06:41:09.356Z,1.60
2018-12-05T06:43:38.141Z,1.60
2018-12-05T06:46:06.885Z,1.60
2018-12-05T06:48:35.577Z,1.60
2018-12-05T06:51:08.092Z,1.70
2018-12-05T06:53:36.840Z,1.70
2018-12-05T06:56:05.638Z,1.70
2018-12-05T06:58:34.420Z,1.80
2018-12-05T07:01:07.026Z,1.80
2018-12-05T07:03:35.776Z,1.80
2018-12-05T07:06:04.583Z,1.80
2018-12-05T07:08:33.356Z,1.80
2018-12-05T07:11:05.829Z,1.80
2018-12-05T07:13:40.256Z,1.80
2018-12-05T07:16:11.052Z,1.90
2018-12-05T07:18:39.792Z,1.90
2018-12-05T07:21:12.284Z,1.90
2018-12-05T07:23:41.995Z,1.90
2018-12-05T07:26:29.456Z,1.90
2018-12-05T07:29:04.217Z,2.00
2018-12-05T07:31:33.043Z,2.00
2018-12-05T07:34:01.907Z,2.00
2018-12-05T07:36:30.650Z,2.00
2018-12-05T07:39:06.776Z,2.00
2018-12-05T07:41:38.676Z,2.10
2018-12-05T07:44:12.841Z,2.10
2018-12-05T07:46:48.757Z,2.10
2018-12-05T07:49:20.900Z,2.10
2018-12-05T07:51:49.584Z,2.10
2018-12-05T07:54:18.320Z,2.20
2018-12-05T07:56:51.038Z,2.20
2018-12-05T07:59:23.616Z,2.20
2018-12-05T08:02:05.592Z,2.20
2018-12-05T08:04:34.348Z,2.30
2018-12-05T08:07:03.040Z,2.30
2018-12-05T08:09:35.167Z,2.30
2018-12-05T08:12:12.976Z,2.40
2018-12-05T08:14:41.664Z,2.40
2018-12-05T08:17:10.360Z,2.40
2018-12-05T08:19:48.304Z,2.40
2018-12-05T08:22:24.511Z,2.50
2018-12-05T08:24:59.584Z,2.50
2018-12-05T08:27:40.896Z,2.40
2018-12-05T08:30:15.643Z,2.40
2018-12-05T08:32:44.355Z,2.40
2018-12-05T08:40:59.880Z,2.60
2018-12-05T08:43:28.575Z,2.50
2018-12-05T08:45:57.260Z,2.60
2018-12-05T08:48:26.012Z,2.60
2018-12-05T08:50:59.543Z,2.60
2018-12-05T08:53:28.311Z,2.70
2018-12-05T08:56:02.568Z,2.70
2018-12-05T08:58:32.980Z,2.70
2018-12-05T09:01:05.860Z,2.70
2018-12-05T09:03:34.571Z,2.80
2018-12-05T09:06:03.383Z,2.60
2018-12-05T09:08:40.556Z,2.50
2018-12-05T09:11:12.771Z,2.60
2018-12-05T09:13:41.465Z,2.60
2018-12-05T09:16:10.279Z,2.50
2018-12-05T09:18:39.035Z,2.50
2018-12-05T09:21:11.570Z,2.60
2018-12-05T09:23:52.801Z,2.80
2018-12-05T09:26:21.496Z,2.90
2018-12-05T09:28:57.016Z,2.90
2018-12-05T09:31:23.545Z,3.00
2018-12-05T09:33:52.252Z,2.90
2018-12-05T09:36:20.940Z,2.90
2018-12-05T09:38:49.792Z,2.80
2018-12-05T09:41:18.471Z,2.90
2018-12-05T09:43:47.227Z,3.00
2018-12-05T09:46:16.076Z,3.10
2018-12-05T09:48:44.840Z,3.20
2018-12-05T09:51:13.536Z,3.30
2018-12-05T09:54:04.161Z,3.20
2018-12-05T09:56:32.849Z,3.10
2018-12-05T09:59:05.105Z,3.00
2018-12-05T10:01:33.795Z,3.10
2018-12-05T10:04:02.631Z,3.20
2018-12-05T10:06:38.570Z,3.30
2018-12-05T10:09:10.709Z,3.40
2018-12-05T10:11:51.686Z,3.50
2018-12-05T10:14:32.509Z,3.50
2018-12-05T10:17:11.004Z,3.50
2018-12-05T10:19:43.207Z,3.60
2018-12-05T10:22:12.036Z,3.60
2018-12-05T10:24:40.800Z,3.70
2018-12-05T10:27:09.502Z,3.80
2018-12-05T10:29:41.412Z,3.80
2018-12-05T10:32:10.169Z,3.90
2018-12-05T10:34:38.863Z,3.90
2018-12-05T10:37:13.373Z,3.90
2018-12-05T10:39:45.346Z,3.80
2018-12-05T10:42:27.092Z,3.70
2018-12-05T10:44:55.823Z,3.70
2018-12-05T10:47:24.547Z,3.70
2018-12-05T10:49:56.824Z,3.70
2018-12-05T10:52:25.668Z,3.80
2018-12-05T10:54:54.449Z,3.80
2018-12-05T10:57:24.960Z,3.80
2018-12-05T10:59:59.568Z,3.80
2018-12-05T11:02:33.868Z,3.80
2018-12-05T11:05:08.019Z,3.80
2018-12-05T11:07:42.215Z,3.90
2018-12-05T11:10:19.663Z,4.00
2018-12-05T11:12:53.907Z,4.10
2018-12-05T11:15:28.012Z,4.20
2018-12-05T11:18:02.208Z,4.30
2018-12-05T11:20:40.139Z,4.30
2018-12-05T11:23:14.099Z,4.40
2018-12-05T11:25:43.923Z,4.50
2018-12-05T11:31:07.120Z,4.50
2018-12-05T11:33:35.816Z,4.60
2018-12-05T11:36:10.016Z,4.70
2018-12-05T11:38:38.780Z,4.70
2018-12-05T11:41:10.804Z,4.80
2018-12-05T11:43:39.516Z,4.80
2018-12-05T11:46:08.288Z,4.80
2018-12-05T11:48:37.027Z,4.80
2018-12-05T11:51:09.656Z,4.80
2018-12-05T11:53:44.208Z,4.80
2018-12-05T11:56:12.909Z,4.80
2018-12-05T11:58:41.606Z,4.80
2018-12-05T12:01:13.561Z,4.90
2018-12-05T12:03:42.347Z,5.00
2018-12-05T12:09:08.331Z,5.10
2018-12-05T12:11:37.609Z,5.20
2018-12-05T12:14:15.407Z,5.30
2018-12-05T12:16:47.627Z,5.30
2018-12-05T12:19:22.392Z,5.40
2018-12-05T12:21:51.119Z,5.40
2018-12-05T12:24:24.824Z,5.40
2018-12-05T12:26:53.520Z,5.40
2018-12-05T12:29:25.735Z,5.40
2018-12-05T12:32:02.855Z,5.40
2018-12-05T12:34:37.820Z,5.30
2018-12-05T12:37:19.145Z,5.30
2018-12-05T12:39:57.548Z,5.40
2018-12-05T12:42:26.332Z,5.40
2018-12-05T12:44:55.128Z,5.40
2018-12-05T12:47:25.393Z,5.50
2018-12-05T12:49:57.127Z,5.50
2018-12-05T12:52:31.672Z,5.50
2018-12-05T12:55:12.663Z,5.60
2018-12-05T12:57:41.388Z,5.60
2018-12-05T13:00:14.003Z,5.60
2018-12-05T13:02:42.744Z,5.60
2018-12-05T13:05:11.441Z,5.60
2018-12-05T13:07:40.237Z,5.60
2018-12-05T13:10:10.937Z,5.60
2018-12-05T13:12:39.623Z,5.60
2018-12-05T13:15:08.507Z,5.70
2018-12-05T13:17:37.211Z,5.70
2018-12-05T13:20:11.388Z,5.70
2018-12-05T13:22:45.852Z,5.80
2018-12-05T13:25:14.628Z,5.80
2018-12-05T13:27:59.912Z,5.80
2018-12-05T13:30:31.988Z,5.80
2018-12-05T13:33:00.813Z,5.90
2018-12-05T13:35:29.648Z,5.90
2018-12-05T13:40:52.432Z,5.90
2018-12-05T13:43:21.148Z,5.90
2018-12-05T13:45:49.839Z,5.90
2018-12-05T13:48:18.580Z,6.00
2018-12-05T13:53:49.097Z,6.10
2018-12-05T13:56:24.086Z,6.10
2018-12-05T13:59:02.902Z,6.20
2018-12-05T14:01:36.356Z,6.20
2018-12-05T14:04:16.981Z,6.20
2018-12-05T14:06:52.050Z,6.20
2018-12-05T14:09:24.661Z,6.30
2018-12-05T14:11:53.523Z,6.30
2018-12-05T14:14:28.912Z,6.30
2018-12-05T14:17:03.766Z,6.30
2018-12-05T14:19:35.800Z,6.30
2018-12-05T14:25:12.745Z,6.30
2018-12-05T14:27:44.636Z,6.30
2018-12-05T14:30:25.384Z,6.30
2018-12-05T14:32:59.715Z,6.30
2018-12-05T14:35:30.516Z,6.20
2018-12-05T14:38:11.363Z,6.20
2018-12-05T14:40:43.199Z,6.20
2018-12-05T14:43:11.907Z,6.20
2018-12-05T14:48:39.598Z,6.20
2018-12-05T14:51:15.753Z,6.20
2018-12-05T14:53:58.980Z,6.10
2018-12-05T14:56:27.679Z,6.10
2018-12-05T14:59:01.836Z,6.10
2018-12-05T15:01:34.140Z,6.00
2018-12-05T15:04:02.883Z,5.90
2018-12-05T15:06:41.407Z,5.80
2018-12-05T15:09:13.548Z,5.70
2018-12-05T15:11:54.436Z,5.60
2018-12-05T15:14:35.878Z,5.60
2018-12-05T15:19:43.051Z,5.50
2018-12-05T15:22:11.843Z,5.40
2018-12-05T15:24:40.582Z,5.40
2018-12-05T15:27:09.351Z,5.30
2018-12-05T15:29:42.819Z,5.20
2018-12-05T15:32:11.645Z,5.20
2018-12-05T15:34:40.420Z,5.20
2018-12-05T15:37:09.142Z,5.10
2018-12-05T15:39:41.419Z,5.10
2018-12-05T15:42:10.323Z,5.10
2018-12-05T15:44:44.044Z,5.00
2018-12-05T15:47:12.779Z,5.00
2018-12-05T15:49:45.458Z,4.90
2018-12-05T15:52:14.394Z,4.90
2018-12-05T15:54:43.220Z,4.90
2018-12-05T16:00:08.224Z,4.80
2018-12-05T16:02:37.003Z,4.80
2018-12-05T16:05:09.333Z,4.80
2018-12-05T16:07:41.987Z,4.70
2018-12-05T16:10:16.216Z,4.70
2018-12-05T16:12:57.644Z,4.70
2018-12-05T16:15:30.355Z,4.70
2018-12-05T16:18:04.952Z,4.70
2018-12-05T16:20:37.246Z,4.70
2018-12-05T16:23:06.128Z,4.70
2018-12-05T16:25:39.251Z,4.60
2018-12-05T16:28:20.847Z,4.70
2018-12-05T16:30:53.980Z,4.60
2018-12-05T16:33:23.219Z,4.70
2018-12-05T16:36:04.957Z,4.70
2018-12-05T16:38:34.464Z,4.70
2018-12-05T16:41:07.384Z,4.70
2018-12-05T16:43:36.622Z,4.70
2018-12-05T16:46:09.804Z,4.80
2018-12-05T16:48:42.886Z,4.80
2018-12-05T16:51:12.291Z,4.80
2018-12-05T16:53:42.532Z,4.70
2018-12-05T16:56:21.235Z,4.80
2018-12-05T16:58:53.243Z,4.70
2018-12-05T17:01:21.981Z,4.70
2018-12-05T17:03:51.317Z,4.80
2018-12-05T17:06:23.795Z,4.80
2018-12-05T17:08:52.955Z,4.80
2018-12-05T17:11:33.873Z,4.80
2018-12-05T17:14:07.727Z,4.80
2018-12-05T17:16:40.291Z,4.80
2018-12-05T17:19:09.119Z,4.90
2018-12-05T17:21:39.090Z,4.90
2018-12-05T17:24:14.330Z,4.90
2018-12-05T17:26:46.610Z,4.90
2018-12-05T17:29:15.819Z,4.90
2018-12-05T17:31:59.015Z,4.90
2018-12-05T17:34:28.405Z,4.90
2018-12-05T17:36:57.716Z,5.00
2018-12-05T17:39:26.964Z,4.90
2018-12-05T17:41:56.140Z,5.00
2018-12-05T17:44:25.487Z,5.00
2018-12-05T17:47:09.199Z,5.00
2018-12-05T17:49:44.053Z,5.00
2018-12-05T17:52:13.877Z,5.00
2018-12-05T17:54:47.133Z,5.00
2018-12-05T17:57:15.812Z,5.00
2018-12-05T17:59:44.592Z,5.10
2018-12-05T18:02:20.420Z,5.10
2018-12-05T18:04:52.672Z,5.00
2018-12-05T18:07:21.368Z,5.00
2018-12-05T18:09:50.118Z,5.00
2018-12-05T18:12:20.148Z,5.00
2018-12-05T18:14:58.325Z,5.00
2018-12-05T18:22:47.531Z,5.10
2018-12-05T18:25:19.436Z,5.10
2018-12-05T18:28:02.029Z,5.10
2018-12-05T18:30:31.956Z,5.10
2018-12-05T18:33:02.498Z,5.10
2018-12-05T18:35:34.897Z,5.10
2018-12-05T18:38:03.760Z,5.10
2018-12-05T18:40:32.524Z,5.10
2018-12-05T18:43:01.276Z,5.20
2018-12-05T18:45:44.845Z,5.20
2018-12-05T18:48:13.620Z,5.20
2018-12-05T18:50:42.373Z,5.20
2018-12-05T18:53:17.491Z,5.30
2018-12-05T18:56:06.014Z,5.30
2018-12-05T18:58:42.032Z,5.30
2018-12-05T19:04:21.285Z,5.30
2018-12-05T19:06:53.568Z,5.30
2018-12-05T19:09:26.889Z,5.30
2018-12-05T19:11:53.167Z,5.30
2018-12-05T19:14:27.296Z,5.30
2018-12-05T19:16:56.025Z,5.20
2018-12-05T19:19:30.624Z,5.20
2018-12-05T19:24:32.036Z,5.30
2018-12-05T19:27:00.881Z,5.30
2018-12-05T19:29:32.907Z,5.30
2018-12-05T19:32:13.892Z,5.20
2018-12-05T19:34:46.919Z,5.30
2018-12-05T19:37:15.784Z,5.30
2018-12-05T19:39:57.040Z,5.20
2018-12-05T19:42:25.799Z,5.20
2018-12-05T19:45:00.936Z,5.20
2018-12-05T19:47:50.750Z,5.20
2018-12-05T19:50:19.537Z,5.20
2018-12-05T19:52:48.395Z,5.20
2018-12-05T19:55:23.884Z,5.20
2018-12-05T19:57:52.560Z,5.30
2018-12-05T20:00:31.000Z,5.30
2018-12-05T20:03:04.895Z,5.30
2018-12-05T20:05:39.420Z,5.20
2018-12-05T20:08:08.111Z,5.20
2018-12-05T20:10:36.813Z,5.30
2018-12-05T20:13:08.348Z,5.30
2018-12-05T20:15:53.109Z,5.20
2018-12-05T20:18:34.072Z,5.30
2018-12-05T20:21:02.873Z,5.30
2018-12-05T20:23:31.627Z,5.30
2018-12-05T20:28:54.017Z,5.30
2018-12-05T20:31:22.768Z,5.30
2018-12-05T20:33:51.475Z,5.30
2018-12-05T20:36:23.617Z,5.30
2018-12-05T20:38:52.359Z,5.30
2018-12-05T20:41:21.047Z,5.30
2018-12-05T20:43:55.924Z,5.30
2018-12-05T20:46:30.891Z,5.30
2018-12-05T20:48:59.612Z,5.30
2018-12-05T20:51:28.538Z,5.30
2018-12-05T20:54:01.243Z,5.30
2018-12-05T20:56:36.316Z,5.30
2018-12-05T20:59:14.817Z,5.30
2018-12-05T21:01:50.000Z,5.30
2018-12-05T21:04:18.816Z,5.30
2018-12-05T21:06:53.226Z,5.30
2018-12-05T21:12:31.870Z,5.30
2018-12-05T21:15:06.316Z,5.30
2018-12-05T21:17:35.025Z,5.30
2018-12-05T21:20:04.196Z,5.30
2018-12-05T21:22:50.340Z,5.30
2018-12-05T21:25:30.028Z,5.30
2018-12-05T21:27:58.753Z,5.30
2018-12-05T21:30:27.616Z,5.30
2018-12-05T21:32:56.344Z,5.30
2018-12-05T21:35:28.441Z,5.30
2018-12-05T21:37:57.162Z,5.30
2018-12-05T21:40:26.220Z,5.40
2018-12-05T21:42:57.989Z,5.40
2018-12-05T21:45:36.293Z,5.40
2018-12-05T21:48:05.036Z,5.50
2018-12-05T21:50:42.432Z,5.50
2018-12-05T21:53:11.243Z,5.50
2018-12-05T21:55:43.396Z,5.60
2018-12-05T21:58:12.169Z,5.60
2018-12-05T22:00:40.864Z,5.60
2018-12-05T22:03:15.945Z,5.60
2018-12-05T22:05:54.650Z,5.60
2018-12-05T22:08:35.842Z,5.60
2018-12-05T22:11:10.232Z,5.60
2018-12-05T22:13:53.592Z,5.60
2018-12-05T22:16:34.937Z,5.60
2018-12-05T22:19:13.216Z,5.60
2018-12-05T22:21:45.888Z,5.60
2018-12-05T22:24:30.932Z,5.60
2018-12-05T22:27:07.329Z,5.60
2018-12-05T22:29:37.836Z,5.70
2018-12-05T22:32:24.082Z,5.70
2018-12-05T22:34:57.481Z,5.70
2018-12-05T22:37:26.240Z,5.70
2018-12-05T22:40:04.132Z,5.70
2018-12-05T22:42:45.838Z,5.70
2018-12-05T22:45:20.305Z,5.70
2018-12-05T22:48:01.429Z,5.70
2018-12-05T22:50:30.173Z,5.70
2018-12-05T22:52:59.019Z,5.60
2018-12-05T22:55:30.892Z,5.60
2018-12-05T22:58:18.026Z,5.60
2018-12-05T23:00:55.145Z,5.60
2018-12-05T23:03:31.461Z,5.60
2018-12-05T23:06:04.232Z,5.60
2018-12-05T23:08:36.321Z,5.60
2018-12-05T23:11:11.017Z,5.60
2018-12-05T23:13:45.325Z,5.70
2018-12-05T23:16:33.032Z,5.60
2018-12-05T23:19:08.004Z,5.70
2018-12-05T23:21:49.452Z,5.70
2018-12-05T23:24:34.457Z,5.70
2018-12-05T23:27:15.172Z,5.70
2018-12-05T23:32:49.836Z,5.80
2018-12-05T23:35:31.360Z,5.80
2018-12-05T23:38:00.107Z,5.80
2018-12-05T23:43:41.396Z,5.80
2018-12-05T23:46:14.963Z,5.80
2018-12-05T23:48:43.691Z,5.90
2018-12-05T23:51:12.440Z,5.90
2018-12-05T23:53:41.272Z,5.90
2018-12-05T23:56:25.985Z,5.90
2018-12-05T23:59:14.223Z,5.90
